sensor_id;sensor_type;location;lat;lon;timestamp;P1;durP1;ratioP1;P2;durP2;ratioP2
51594;SDS011;37677;53.254;6.594;2023-12-20T06:08:32;38.75;;;8.15;;
51594;SDS011;37677;53.254;6.594;2023-12-20T06:11:00;31.98;;;6.57;;
51594;SDS011;37677;53.254;6.594;2023-12-20T06:13:26;37.30;;;8.55;;
51594;SDS011;37677;53.254;6.594;2023-12-20T06:15:54;33.10;;;7.20;;
51594;SDS011;37677;53.254;6.594;2023-12-20T06:18:20;32.72;;;7.50;;
51594;SDS011;37677;53.254;6.594;2023-12-20T06:20:46;29.77;;;6.63;;
51594;SDS011;37677;53.254;6.594;2023-12-20T06:23:13;28.50;;;6.82;;
51594;SDS011;37677;53.254;6.594;2023-12-20T06:25:39;30.98;;;6.05;;
51594;SDS011;37677;53.254;6.594;2023-12-20T06:28:05;30.83;;;7.03;;
51594;SDS011;37677;53.254;6.594;2023-12-20T06:30:32;27.05;;;6.38;;
51594;SDS011;37677;53.254;6.594;2023-12-20T06:32:58;36.17;;;6.55;;
51594;SDS011;37677;53.254;6.594;2023-12-20T06:35:25;33.13;;;6.97;;
51594;SDS011;37677;53.254;6.594;2023-12-20T06:37:53;33.15;;;6.75;;
51594;SDS011;37677;53.254;6.594;2023-12-20T06:40:20;34.47;;;6.90;;
51594;SDS011;37677;53.254;6.594;2023-12-20T06:42:46;30.05;;;7.13;;
51594;SDS011;37677;53.254;6.594;2023-12-20T06:45:12;30.60;;;8.20;;
51594;SDS011;37677;53.254;6.594;2023-12-20T06:47:38;28.83;;;6.90;;
51594;SDS011;37677;53.254;6.594;2023-12-20T06:50:05;33.33;;;7.53;;
51594;SDS011;37677;53.254;6.594;2023-12-20T06:52:33;30.55;;;6.88;;
51594;SDS011;37677;53.254;6.594;2023-12-20T06:55:00;26.02;;;6.30;;
51594;SDS011;37677;53.254;6.594;2023-12-20T06:57:26;32.97;;;6.72;;
51594;SDS011;37677;53.254;6.594;2023-12-20T06:59:52;32.53;;;6.80;;
51594;SDS011;37677;53.254;6.594;2023-12-20T07:02:19;30.92;;;7.38;;
51594;SDS011;37677;53.254;6.594;2023-12-20T07:04:46;41.00;;;6.82;;
51594;SDS011;37677;53.254;6.594;2023-12-20T07:07:12;26.90;;;6.07;;
51594;SDS011;37677;53.254;6.594;2023-12-20T07:09:38;28.75;;;6.68;;
51594;SDS011;37677;53.254;6.594;2023-12-20T07:12:06;32.88;;;6.70;;
51594;SDS011;37677;53.254;6.594;2023-12-20T07:14:32;28.17;;;6.68;;
51594;SDS011;37677;53.254;6.594;2023-12-20T07:16:58;28.75;;;7.45;;
51594;SDS011;37677;53.254;6.594;2023-12-20T07:19:24;31.05;;;6.53;;
51594;SDS011;37677;53.254;6.594;2023-12-20T07:21:51;32.75;;;7.32;;
51594;SDS011;37677;53.254;6.594;2023-12-20T07:24:18;30.05;;;6.38;;
51594;SDS011;37677;53.254;6.594;2023-12-20T07:26:44;34.53;;;7.07;;
51594;SDS011;37677;53.254;6.594;2023-12-20T07:29:10;27.20;;;6.03;;
51594;SDS011;37677;53.254;6.594;2023-12-20T07:31:36;25.63;;;6.82;;
51594;SDS011;37677;53.254;6.594;2023-12-20T07:34:03;24.95;;;6.47;;
51594;SDS011;37677;53.254;6.594;2023-12-20T07:36:30;30.23;;;6.80;;
51594;SDS011;37677;53.254;6.594;2023-12-20T07:38:56;32.42;;;6.60;;
51594;SDS011;37677;53.254;6.594;2023-12-20T07:41:22;28.90;;;6.40;;
51594;SDS011;37677;53.254;6.594;2023-12-20T07:43:49;25.70;;;5.90;;
51594;SDS011;37677;53.254;6.594;2023-12-20T15:38:10;15.90;;;3.78;;
51594;SDS011;37677;53.254;6.594;2023-12-20T15:40:37;17.85;;;4.35;;
51594;SDS011;37677;53.254;6.594;2023-12-20T15:43:03;15.63;;;3.95;;
51594;SDS011;37677;53.254;6.594;2023-12-20T15:45:31;17.15;;;4.22;;
51594;SDS011;37677;53.254;6.594;2023-12-20T15:47:57;14.40;;;4.55;;
51594;SDS011;37677;53.254;6.594;2023-12-20T15:50:23;14.10;;;3.90;;
51594;SDS011;37677;53.254;6.594;2023-12-20T15:52:49;13.15;;;4.00;;
51594;SDS011;37677;53.254;6.594;2023-12-20T15:55:16;16.83;;;3.55;;
51594;SDS011;37677;53.254;6.594;2023-12-20T15:57:42;13.52;;;4.28;;
51594;SDS011;37677;53.254;6.594;2023-12-20T16:00:08;16.55;;;5.53;;
51594;SDS011;37677;53.254;6.594;2023-12-20T16:02:34;19.13;;;4.63;;
51594;SDS011;37677;53.254;6.594;2023-12-20T16:05:06;18.23;;;4.40;;
51594;SDS011;37677;53.254;6.594;2023-12-20T16:07:39;14.82;;;3.85;;
51594;SDS011;37677;53.254;6.594;2023-12-20T16:10:05;13.25;;;3.63;;
51594;SDS011;37677;53.254;6.594;2023-12-20T16:12:32;14.63;;;3.42;;
51594;SDS011;37677;53.254;6.594;2023-12-20T16:15:06;13.52;;;3.72;;
51594;SDS011;37677;53.254;6.594;2023-12-20T16:17:35;22.52;;;5.07;;
51594;SDS011;37677;53.254;6.594;2023-12-20T16:20:02;12.65;;;3.13;;
51594;SDS011;37677;53.254;6.594;2023-12-20T16:22:36;15.15;;;3.60;;
51594;SDS011;37677;53.254;6.594;2023-12-20T16:25:02;16.02;;;4.18;;
51594;SDS011;37677;53.254;6.594;2023-12-20T16:27:34;15.07;;;3.72;;
51594;SDS011;37677;53.254;6.594;2023-12-20T16:30:14;18.17;;;4.20;;
51594;SDS011;37677;53.254;6.594;2023-12-20T16:32:49;20.23;;;4.53;;
51594;SDS011;37677;53.254;6.594;2023-12-20T16:35:17;17.58;;;4.82;;
51594;SDS011;37677;53.254;6.594;2023-12-20T16:37:56;22.95;;;5.47;;
51594;SDS011;37677;53.254;6.594;2023-12-20T16:40:24;21.05;;;4.15;;
51594;SDS011;37677;53.254;6.594;2023-12-20T16:42:57;19.67;;;4.38;;
51594;SDS011;37677;53.254;6.594;2023-12-20T16:45:48;19.70;;;4.60;;
51594;SDS011;37677;53.254;6.594;2023-12-20T16:48:23;16.25;;;3.78;;
51594;SDS011;37677;53.254;6.594;2023-12-20T16:50:56;20.67;;;4.50;;
51594;SDS011;37677;53.254;6.594;2023-12-20T16:53:22;18.88;;;4.43;;
51594;SDS011;37677;53.254;6.594;2023-12-20T16:55:49;21.30;;;4.28;;
51594;SDS011;37677;53.254;6.594;2023-12-20T16:58:15;18.90;;;3.72;;
51594;SDS011;37677;53.254;6.594;2023-12-20T17:00:43;17.05;;;4.40;;
51594;SDS011;37677;53.254;6.594;2023-12-20T17:03:10;15.05;;;3.90;;
51594;SDS011;37677;53.254;6.594;2023-12-20T17:05:54;16.50;;;4.38;;
51594;SDS011;37677;53.254;6.594;2023-12-20T17:08:21;17.40;;;4.40;;
51594;SDS011;37677;53.254;6.594;2023-12-20T17:11:01;18.27;;;5.32;;
51594;SDS011;37677;53.254;6.594;2023-12-20T17:13:27;23.98;;;6.18;;
51594;SDS011;37677;53.254;6.594;2023-12-20T17:15:55;23.92;;;5.97;;
51594;SDS011;37677;53.254;6.594;2023-12-20T17:18:36;17.63;;;5.18;;
51594;SDS011;37677;53.254;6.594;2023-12-20T17:21:10;17.23;;;4.80;;
51594;SDS011;37677;53.254;6.594;2023-12-20T17:23:36;15.60;;;5.03;;
51594;SDS011;37677;53.254;6.594;2023-12-20T17:26:08;16.48;;;4.43;;
51594;SDS011;37677;53.254;6.594;2023-12-20T17:28:34;22.17;;;4.97;;
51594;SDS011;37677;53.254;6.594;2023-12-20T17:31:00;23.15;;;5.80;;
51594;SDS011;37677;53.254;6.594;2023-12-20T17:33:26;17.27;;;5.47;;
51594;SDS011;37677;53.254;6.594;2023-12-20T17:35:53;20.02;;;5.72;;
51594;SDS011;37677;53.254;6.594;2023-12-20T17:38:19;18.50;;;6.07;;
51594;SDS011;37677;53.254;6.594;2023-12-20T17:40:45;18.77;;;5.88;;
51594;SDS011;37677;53.254;6.594;2023-12-20T17:43:11;23.50;;;7.15;;
51594;SDS011;37677;53.254;6.594;2023-12-20T17:45:37;18.52;;;5.40;;
51594;SDS011;37677;53.254;6.594;2023-12-20T17:48:04;14.85;;;5.40;;
51594;SDS011;37677;53.254;6.594;2023-12-20T17:50:30;21.98;;;5.68;;
51594;SDS011;37677;53.254;6.594;2023-12-20T17:53:02;18.90;;;6.35;;
51594;SDS011;37677;53.254;6.594;2023-12-20T17:55:31;17.90;;;4.75;;
51594;SDS011;37677;53.254;6.594;2023-12-20T17:57:59;14.73;;;4.50;;
51594;SDS011;37677;53.254;6.594;2023-12-20T18:00:31;15.57;;;4.75;;
51594;SDS011;37677;53.254;6.594;2023-12-20T18:03:04;22.88;;;7.00;;
51594;SDS011;37677;53.254;6.594;2023-12-20T18:05:32;11.05;;;5.55;;
51594;SDS011;37677;53.254;6.594;2023-12-20T18:07:59;13.40;;;4.70;;
51594;SDS011;37677;53.254;6.594;2023-12-20T18:10:26;17.95;;;6.03;;
51594;SDS011;37677;53.254;6.594;2023-12-20T18:12:52;12.40;;;4.72;;
51594;SDS011;37677;53.254;6.594;2023-12-20T18:15:27;9.80;;;4.50;;
51594;SDS011;37677;53.254;6.594;2023-12-20T18:17:53;10.73;;;4.50;;
51594;SDS011;37677;53.254;6.594;2023-12-20T18:20:19;9.65;;;3.65;;
51594;SDS011;37677;53.254;6.594;2023-12-20T18:22:45;8.10;;;3.67;;
51594;SDS011;37677;53.254;6.594;2023-12-20T18:25:11;6.95;;;3.45;;
51594;SDS011;37677;53.254;6.594;2023-12-20T18:27:37;6.55;;;3.60;;
51594;SDS011;37677;53.254;6.594;2023-12-20T18:30:03;6.55;;;2.90;;
51594;SDS011;37677;53.254;6.594;2023-12-20T18:32:33;6.18;;;2.42;;
51594;SDS011;37677;53.254;6.594;2023-12-20T18:34:59;3.70;;;2.25;;
51594;SDS011;37677;53.254;6.594;2023-12-20T18:37:26;3.83;;;2.00;;
51594;SDS011;37677;53.254;6.594;2023-12-20T18:39:54;5.82;;;1.70;;
51594;SDS011;37677;53.254;6.594;2023-12-20T18:42:20;3.45;;;1.90;;
51594;SDS011;37677;53.254;6.594;2023-12-20T18:44:46;3.53;;;2.10;;
51594;SDS011;37677;53.254;6.594;2023-12-20T18:47:13;3.38;;;1.63;;
51594;SDS011;37677;53.254;6.594;2023-12-20T18:49:39;3.35;;;1.55;;
51594;SDS011;37677;53.254;6.594;2023-12-20T18:52:07;3.22;;;1.63;;
51594;SDS011;37677;53.254;6.594;2023-12-20T18:54:33;2.88;;;1.52;;
51594;SDS011;37677;53.254;6.594;2023-12-20T18:57:01;3.15;;;1.70;;
51594;SDS011;37677;53.254;6.594;2023-12-20T18:59:27;2.78;;;1.50;;
51594;SDS011;37677;53.254;6.594;2023-12-20T19:01:53;2.78;;;1.60;;
51594;SDS011;37677;53.254;6.594;2023-12-20T19:04:22;3.78;;;1.70;;
51594;SDS011;37677;53.254;6.594;2023-12-20T19:06:48;1.60;;;1.50;;
51594;SDS011;37677;53.254;6.594;2023-12-20T19:09:15;4.05;;;1.80;;
51594;SDS011;37677;53.254;6.594;2023-12-20T19:11:42;3.00;;;1.55;;
51594;SDS011;37677;53.254;6.594;2023-12-20T19:14:08;2.00;;;1.50;;
51594;SDS011;37677;53.254;6.594;2023-12-20T19:16:38;2.45;;;1.58;;
51594;SDS011;37677;53.254;6.594;2023-12-20T19:19:14;3.72;;;1.77;;
51594;SDS011;37677;53.254;6.594;2023-12-20T19:21:40;2.22;;;1.70;;
51594;SDS011;37677;53.254;6.594;2023-12-20T19:24:07;4.18;;;1.98;;
51594;SDS011;37677;53.254;6.594;2023-12-20T19:26:33;2.92;;;1.63;;
51594;SDS011;37677;53.254;6.594;2023-12-20T19:28:59;4.18;;;1.90;;
51594;SDS011;37677;53.254;6.594;2023-12-20T19:31:25;4.78;;;1.88;;
51594;SDS011;37677;53.254;6.594;2023-12-20T19:33:54;3.47;;;2.00;;
51594;SDS011;37677;53.254;6.594;2023-12-20T19:36:21;3.03;;;1.90;;
51594;SDS011;37677;53.254;6.594;2023-12-20T19:38:50;6.97;;;2.20;;
51594;SDS011;37677;53.254;6.594;2023-12-20T19:41:22;4.57;;;2.40;;
51594;SDS011;37677;53.254;6.594;2023-12-20T19:43:56;6.93;;;2.38;;
51594;SDS011;37677;53.254;6.594;2023-12-20T19:46:23;7.32;;;1.80;;
51594;SDS011;37677;53.254;6.594;2023-12-20T19:48:50;6.63;;;2.30;;
51594;SDS011;37677;53.254;6.594;2023-12-20T19:51:17;5.85;;;2.15;;
51594;SDS011;37677;53.254;6.594;2023-12-20T19:53:44;4.28;;;2.10;;
51594;SDS011;37677;53.254;6.594;2023-12-20T19:56:10;6.95;;;2.28;;
51594;SDS011;37677;53.254;6.594;2023-12-20T19:58:36;6.68;;;2.40;;
51594;SDS011;37677;53.254;6.594;2023-12-20T20:01:02;5.88;;;2.70;;
51594;SDS011;37677;53.254;6.594;2023-12-20T20:03:31;8.55;;;2.67;;
51594;SDS011;37677;53.254;6.594;2023-12-20T20:05:59;9.85;;;2.72;;
51594;SDS011;37677;53.254;6.594;2023-12-20T20:08:26;4.95;;;2.10;;
51594;SDS011;37677;53.254;6.594;2023-12-20T20:13:21;9.57;;;2.65;;
51594;SDS011;37677;53.254;6.594;2023-12-20T20:18:17;10.77;;;3.05;;
51594;SDS011;37677;53.254;6.594;2023-12-20T20:20:45;11.00;;;3.15;;
51594;SDS011;37677;53.254;6.594;2023-12-20T20:23:12;11.15;;;3.63;;
51594;SDS011;37677;53.254;6.594;2023-12-20T20:25:38;10.65;;;3.50;;
51594;SDS011;37677;53.254;6.594;2023-12-20T20:28:04;12.65;;;3.40;;
51594;SDS011;37677;53.254;6.594;2023-12-20T20:30:30;14.82;;;3.03;;
51594;SDS011;37677;53.254;6.594;2023-12-20T20:32:56;12.98;;;3.80;;
51594;SDS011;37677;53.254;6.594;2023-12-20T20:35:23;21.50;;;4.40;;
51594;SDS011;37677;53.254;6.594;2023-12-20T20:37:53;17.58;;;4.95;;
51594;SDS011;37677;53.254;6.594;2023-12-20T20:40:21;22.67;;;4.40;;
51594;SDS011;37677;53.254;6.594;2023-12-20T20:42:52;14.50;;;4.20;;
51594;SDS011;37677;53.254;6.594;2023-12-20T20:45:18;18.67;;;4.68;;
51594;SDS011;37677;53.254;6.594;2023-12-20T20:47:46;22.85;;;4.95;;
51594;SDS011;37677;53.254;6.594;2023-12-20T20:50:12;17.27;;;4.60;;
51594;SDS011;37677;53.254;6.594;2023-12-20T20:52:42;23.88;;;5.63;;
51594;SDS011;37677;53.254;6.594;2023-12-20T20:55:13;23.45;;;5.35;;
51594;SDS011;37677;53.254;6.594;2023-12-20T20:57:40;21.58;;;4.95;;
51594;SDS011;37677;53.254;6.594;2023-12-20T21:02:45;30.75;;;5.63;;
51594;SDS011;37677;53.254;6.594;2023-12-20T21:05:11;19.45;;;4.20;;
51594;SDS011;37677;53.254;6.594;2023-12-20T21:07:46;27.17;;;5.75;;
51594;SDS011;37677;53.254;6.594;2023-12-20T21:10:12;28.75;;;5.43;;
51594;SDS011;37677;53.254;6.594;2023-12-20T21:12:38;26.73;;;5.15;;
51594;SDS011;37677;53.254;6.594;2023-12-20T21:15:05;20.02;;;4.13;;
51594;SDS011;37677;53.254;6.594;2023-12-20T21:17:31;24.17;;;5.00;;
51594;SDS011;37677;53.254;6.594;2023-12-20T21:19:57;25.35;;;5.32;;
51594;SDS011;37677;53.254;6.594;2023-12-20T21:22:23;24.85;;;4.90;;
51594;SDS011;37677;53.254;6.594;2023-12-20T21:24:49;24.17;;;5.28;;
51594;SDS011;37677;53.254;6.594;2023-12-20T21:27:16;25.38;;;5.78;;
51594;SDS011;37677;53.254;6.594;2023-12-20T21:29:42;23.88;;;5.63;;
51594;SDS011;37677;53.254;6.594;2023-12-20T21:32:16;20.83;;;4.72;;
51594;SDS011;37677;53.254;6.594;2023-12-20T21:37:12;28.88;;;5.72;;
51594;SDS011;37677;53.254;6.594;2023-12-20T21:39:38;19.60;;;5.65;;
51594;SDS011;37677;53.254;6.594;2023-12-20T21:42:05;23.73;;;5.05;;
51594;SDS011;37677;53.254;6.594;2023-12-20T21:44:31;29.45;;;5.60;;
51594;SDS011;37677;53.254;6.594;2023-12-20T21:46:57;27.92;;;5.35;;
51594;SDS011;37677;53.254;6.594;2023-12-20T21:49:24;28.73;;;5.70;;
51594;SDS011;37677;53.254;6.594;2023-12-20T21:51:52;25.70;;;5.85;;
51594;SDS011;37677;53.254;6.594;2023-12-20T21:54:18;27.42;;;5.57;;
51594;SDS011;37677;53.254;6.594;2023-12-20T21:56:45;26.55;;;5.47;;
51594;SDS011;37677;53.254;6.594;2023-12-20T21:59:11;29.60;;;5.43;;
51594;SDS011;37677;53.254;6.594;2023-12-20T22:01:40;17.92;;;4.05;;
51594;SDS011;37677;53.254;6.594;2023-12-20T22:04:08;24.00;;;4.43;;
51594;SDS011;37677;53.254;6.594;2023-12-20T22:06:34;18.63;;;4.38;;
51594;SDS011;37677;53.254;6.594;2023-12-20T22:09:00;20.77;;;4.43;;
51594;SDS011;37677;53.254;6.594;2023-12-20T22:11:26;28.88;;;5.35;;
51594;SDS011;37677;53.254;6.594;2023-12-20T22:13:53;21.92;;;4.60;;
51594;SDS011;37677;53.254;6.594;2023-12-20T22:16:21;22.38;;;4.80;;
